sensor_id;sensor_type;location;lat;lon;timestamp;P1;durP1;ratioP1;P2;durP2;ratioP2
71513;SDS011;59335;46.652;21.272;2023-03-29T06:06:49;12.32;;;3.40;;
71513;SDS011;59335;46.652;21.272;2023-03-29T06:09:55;10.30;;;3.03;;
71513;SDS011;59335;46.652;21.272;2023-03-29T06:13:00;11.87;;;3.27;;
71513;SDS011;59335;46.652;21.272;2023-03-29T06:16:04;16.92;;;3.28;;
71513;SDS011;59335;46.652;21.272;2023-03-29T06:19:11;11.13;;;3.22;;
71513;SDS011;59335;46.652;21.272;2023-03-29T06:22:15;9.75;;;2.95;;
71513;SDS011;59335;46.652;21.272;2023-03-29T06:25:23;9.13;;;3.10;;
71513;SDS011;59335;46.652;21.272;2023-03-29T06:28:26;8.93;;;3.17;;
71513;SDS011;59335;46.652;21.272;2023-03-29T06:31:29;9.05;;;3.00;;
71513;SDS011;59335;46.652;21.272;2023-03-29T06:34:32;10.75;;;3.22;;
71513;SDS011;59335;46.652;21.272;2023-03-29T06:38:02;6.63;;;2.60;;
71513;SDS011;59335;46.652;21.272;2023-03-29T06:41:25;9.60;;;3.00;;
71513;SDS011;59335;46.652;21.272;2023-03-29T06:44:40;8.27;;;2.80;;
71513;SDS011;59335;46.652;21.272;2023-03-29T06:47:52;8.63;;;2.50;;
71513;SDS011;59335;46.652;21.272;2023-03-29T06:50:55;10.38;;;3.00;;
71513;SDS011;59335;46.652;21.272;2023-03-29T06:54:04;12.23;;;3.13;;
71513;SDS011;59335;46.652;21.272;2023-03-29T06:57:09;9.30;;;3.05;;
71513;SDS011;59335;46.652;21.272;2023-03-29T07:04:01;10.55;;;3.05;;
71513;SDS011;59335;46.652;21.272;2023-03-29T07:07:12;9.23;;;2.92;;
71513;SDS011;59335;46.652;21.272;2023-03-29T07:10:27;9.75;;;3.35;;
71513;SDS011;59335;46.652;21.272;2023-03-29T07:13:57;10.50;;;3.33;;
71513;SDS011;59335;46.652;21.272;2023-03-29T07:17:00;12.27;;;3.20;;
71513;SDS011;59335;46.652;21.272;2023-03-29T07:20:10;12.48;;;3.10;;
71513;SDS011;59335;46.652;21.272;2023-03-29T07:23:20;12.07;;;3.33;;
71513;SDS011;59335;46.652;21.272;2023-03-29T07:26:24;12.60;;;2.92;;
71513;SDS011;59335;46.652;21.272;2023-03-29T07:29:31;9.57;;;2.70;;
71513;SDS011;59335;46.652;21.272;2023-03-29T07:32:34;9.40;;;2.80;;
71513;SDS011;59335;46.652;21.272;2023-03-29T07:35:58;8.40;;;2.80;;
71513;SDS011;59335;46.652;21.272;2023-03-29T07:39:03;12.23;;;2.80;;
71513;SDS011;59335;46.652;21.272;2023-03-29T07:42:09;10.27;;;3.08;;
71513;SDS011;59335;46.652;21.272;2023-03-29T07:45:14;10.13;;;2.70;;
71513;SDS011;59335;46.652;21.272;2023-03-29T07:48:32;9.63;;;3.10;;
71513;SDS011;59335;46.652;21.272;2023-03-29T07:51:39;11.18;;;2.95;;
71513;SDS011;59335;46.652;21.272;2023-03-29T07:54:45;11.02;;;3.10;;
71513;SDS011;59335;46.652;21.272;2023-03-29T07:58:03;10.38;;;2.65;;
71513;SDS011;59335;46.652;21.272;2023-03-29T08:01:10;11.40;;;2.55;;
71513;SDS011;59335;46.652;21.272;2023-03-29T08:04:38;13.77;;;3.40;;
71513;SDS011;59335;46.652;21.272;2023-03-29T08:07:51;9.77;;;2.50;;
71513;SDS011;59335;46.652;21.272;2023-03-29T08:11:29;12.02;;;2.88;;
71513;SDS011;59335;46.652;21.272;2023-03-29T08:14:37;8.65;;;2.70;;
71513;SDS011;59335;46.652;21.272;2023-03-29T08:18:06;10.00;;;2.80;;
71513;SDS011;59335;46.652;21.272;2023-03-29T08:21:10;7.97;;;2.77;;
71513;SDS011;59335;46.652;21.272;2023-03-29T08:24:21;10.43;;;2.67;;
71513;SDS011;59335;46.652;21.272;2023-03-29T08:27:29;10.05;;;2.47;;
71513;SDS011;59335;46.652;21.272;2023-03-29T08:30:33;10.57;;;2.67;;
71513;SDS011;59335;46.652;21.272;2023-03-29T08:33:38;6.28;;;2.38;;
71513;SDS011;59335;46.652;21.272;2023-03-29T08:37:03;11.80;;;2.70;;
71513;SDS011;59335;46.652;21.272;2023-03-29T08:40:19;12.13;;;2.85;;
71513;SDS011;59335;46.652;21.272;2023-03-29T08:47:03;9.70;;;2.60;;
71513;SDS011;59335;46.652;21.272;2023-03-29T08:50:38;9.65;;;2.70;;
71513;SDS011;59335;46.652;21.272;2023-03-29T08:53:55;9.43;;;2.50;;
71513;SDS011;59335;46.652;21.272;2023-03-29T08:57:29;11.27;;;2.63;;
71513;SDS011;59335;46.652;21.272;2023-03-29T09:00:49;10.55;;;2.97;;
71513;SDS011;59335;46.652;21.272;2023-03-29T09:04:02;10.00;;;2.85;;
71513;SDS011;59335;46.652;21.272;2023-03-29T09:07:31;8.45;;;2.42;;
71513;SDS011;59335;46.652;21.272;2023-03-29T09:10:38;10.03;;;3.17;;
71513;SDS011;59335;46.652;21.272;2023-03-29T09:17:19;8.75;;;2.80;;
71513;SDS011;59335;46.652;21.272;2023-03-29T09:20:50;9.65;;;2.45;;
71513;SDS011;59335;46.652;21.272;2023-03-29T09:24:09;8.38;;;2.53;;
71513;SDS011;59335;46.652;21.272;2023-03-29T09:31:28;10.18;;;3.53;;
71513;SDS011;59335;46.652;21.272;2023-03-29T09:34:44;8.27;;;2.10;;
71513;SDS011;59335;46.652;21.272;2023-03-29T09:37:55;10.65;;;2.30;;
71513;SDS011;59335;46.652;21.272;2023-03-29T09:41:12;5.00;;;2.38;;
71513;SDS011;59335;46.652;21.272;2023-03-29T09:44:29;8.23;;;2.20;;
71513;SDS011;59335;46.652;21.272;2023-03-29T09:47:56;7.20;;;2.40;;
71513;SDS011;59335;46.652;21.272;2023-03-29T09:51:14;13.45;;;2.72;;
71513;SDS011;59335;46.652;21.272;2023-03-29T09:54:21;7.57;;;2.30;;
71513;SDS011;59335;46.652;21.272;2023-03-29T09:57:50;7.28;;;2.67;;
71513;SDS011;59335;46.652;21.272;2023-03-29T10:00:58;9.77;;;2.40;;
71513;SDS011;59335;46.652;21.272;2023-03-29T10:04:07;8.88;;;2.50;;
71513;SDS011;59335;46.652;21.272;2023-03-29T10:07:18;6.38;;;2.65;;
71513;SDS011;59335;46.652;21.272;2023-03-29T10:10:29;9.88;;;2.45;;
71513;SDS011;59335;46.652;21.272;2023-03-29T10:13:35;9.75;;;2.10;;
71513;SDS011;59335;46.652;21.272;2023-03-29T10:16:53;5.90;;;2.20;;
71513;SDS011;59335;46.652;21.272;2023-03-29T10:20:01;9.00;;;2.72;;
71513;SDS011;59335;46.652;21.272;2023-03-29T10:23:06;9.45;;;2.85;;
71513;SDS011;59335;46.652;21.272;2023-03-29T10:29:27;10.60;;;2.42;;
71513;SDS011;59335;46.652;21.272;2023-03-29T10:32:40;8.57;;;2.70;;
71513;SDS011;59335;46.652;21.272;2023-03-29T10:35:43;10.35;;;2.15;;
71513;SDS011;59335;46.652;21.272;2023-03-29T10:38:49;8.02;;;2.13;;
71513;SDS011;59335;46.652;21.272;2023-03-29T10:41:53;8.70;;;2.45;;
71513;SDS011;59335;46.652;21.272;2023-03-29T10:44:58;8.30;;;2.28;;
71513;SDS011;59335;46.652;21.272;2023-03-29T10:48:04;10.00;;;2.87;;
71513;SDS011;59335;46.652;21.272;2023-03-29T10:51:12;7.18;;;2.50;;
71513;SDS011;59335;46.652;21.272;2023-03-29T10:54:20;9.57;;;2.20;;
71513;SDS011;59335;46.652;21.272;2023-03-29T11:01:00;10.75;;;2.60;;
71513;SDS011;59335;46.652;21.272;2023-03-29T11:04:41;12.57;;;2.90;;
71513;SDS011;59335;46.652;21.272;2023-03-29T11:07:54;9.77;;;2.30;;
71513;SDS011;59335;46.652;21.272;2023-03-29T11:14:50;7.60;;;2.85;;
71513;SDS011;59335;46.652;21.272;2023-03-29T11:41:47;7.50;;;2.13;;
71513;SDS011;59335;46.652;21.272;2023-03-29T11:44:54;7.65;;;2.15;;
71513;SDS011;59335;46.652;21.272;2023-03-29T11:48:05;11.25;;;2.42;;
71513;SDS011;59335;46.652;21.272;2023-03-29T11:51:21;13.35;;;2.50;;
71513;SDS011;59335;46.652;21.272;2023-03-29T11:54:38;8.23;;;2.10;;
71513;SDS011;59335;46.652;21.272;2023-03-29T11:58:13;9.50;;;2.30;;
71513;SDS011;59335;46.652;21.272;2023-03-29T12:01:41;8.73;;;2.78;;
71513;SDS011;59335;46.652;21.272;2023-03-29T12:04:54;10.73;;;2.10;;
71513;SDS011;59335;46.652;21.272;2023-03-29T12:08:17;10.27;;;2.22;;
71513;SDS011;59335;46.652;21.272;2023-03-29T12:18:10;12.20;;;2.80;;
71513;SDS011;59335;46.652;21.272;2023-03-29T12:21:38;7.18;;;2.20;;
71513;SDS011;59335;46.652;21.272;2023-03-29T12:24:44;8.75;;;2.47;;
71513;SDS011;59335;46.652;21.272;2023-03-29T12:31:28;9.35;;;2.35;;
71513;SDS011;59335;46.652;21.272;2023-03-29T12:38:42;7.55;;;2.50;;
71513;SDS011;59335;46.652;21.272;2023-03-29T12:42:19;8.95;;;2.17;;
71513;SDS011;59335;46.652;21.272;2023-03-29T12:45:43;9.97;;;2.40;;
71513;SDS011;59335;46.652;21.272;2023-03-29T12:48:53;13.95;;;2.40;;
71513;SDS011;59335;46.652;21.272;2023-03-29T12:52:02;13.25;;;3.20;;
71513;SDS011;59335;46.652;21.272;2023-03-29T12:55:19;16.85;;;2.78;;
71513;SDS011;59335;46.652;21.272;2023-03-29T13:05:29;12.02;;;2.53;;
71513;SDS011;59335;46.652;21.272;2023-03-29T13:08:43;8.38;;;2.17;;
71513;SDS011;59335;46.652;21.272;2023-03-29T13:22:04;7.72;;;2.42;;
71513;SDS011;59335;46.652;21.272;2023-03-29T13:25:21;11.25;;;2.17;;
71513;SDS011;59335;46.652;21.272;2023-03-29T13:35:30;11.57;;;2.30;;
71513;SDS011;59335;46.652;21.272;2023-03-29T13:38:45;9.40;;;2.30;;
71513;SDS011;59335;46.652;21.272;2023-03-29T13:41:51;11.02;;;2.80;;
71513;SDS011;59335;46.652;21.272;2023-03-29T13:45:03;8.02;;;2.00;;
71513;SDS011;59335;46.652;21.272;2023-03-29T13:48:21;8.50;;;2.92;;
71513;SDS011;59335;46.652;21.272;2023-03-29T13:51:33;10.13;;;2.23;;
71513;SDS011;59335;46.652;21.272;2023-03-29T13:54:43;11.25;;;2.63;;
71513;SDS011;59335;46.652;21.272;2023-03-29T13:58:27;9.50;;;2.40;;
71513;SDS011;59335;46.652;21.272;2023-03-29T14:05:01;13.40;;;2.40;;
71513;SDS011;59335;46.652;21.272;2023-03-29T14:08:09;9.13;;;2.50;;
71513;SDS011;59335;46.652;21.272;2023-03-29T14:11:27;9.75;;;2.58;;
71513;SDS011;59335;46.652;21.272;2023-03-29T14:14:31;11.10;;;2.42;;
71513;SDS011;59335;46.652;21.272;2023-03-29T14:17:34;12.05;;;2.58;;
71513;SDS011;59335;46.652;21.272;2023-03-29T14:20:38;10.20;;;3.03;;
71513;SDS011;59335;46.652;21.272;2023-03-29T14:23:46;12.17;;;2.63;;
71513;SDS011;59335;46.652;21.272;2023-03-29T14:26:55;11.50;;;2.72;;
71513;SDS011;59335;46.652;21.272;2023-03-29T14:29:58;11.02;;;2.33;;
71513;SDS011;59335;46.652;21.272;2023-03-29T14:33:02;11.43;;;2.03;;
71513;SDS011;59335;46.652;21.272;2023-03-29T14:36:09;12.55;;;2.33;;
71513;SDS011;59335;46.652;21.272;2023-03-29T14:39:17;13.30;;;2.70;;
71513;SDS011;59335;46.652;21.272;2023-03-29T14:42:23;12.98;;;2.63;;
71513;SDS011;59335;46.652;21.272;2023-03-29T14:45:28;11.70;;;2.63;;
71513;SDS011;59335;46.652;21.272;2023-03-29T14:48:31;11.35;;;2.85;;
71513;SDS011;59335;46.652;21.272;2023-03-29T14:51:34;11.55;;;2.35;;
71513;SDS011;59335;46.652;21.272;2023-03-29T14:54:38;8.80;;;2.20;;
71513;SDS011;59335;46.652;21.272;2023-03-29T14:57:42;8.30;;;1.83;;
71513;SDS011;59335;46.652;21.272;2023-03-29T15:00:46;7.85;;;2.20;;
71513;SDS011;59335;46.652;21.272;2023-03-29T15:03:55;14.15;;;2.70;;
71513;SDS011;59335;46.652;21.272;2023-03-29T15:07:09;9.32;;;2.30;;
71513;SDS011;59335;46.652;21.272;2023-03-29T15:10:16;17.07;;;2.67;;
71513;SDS011;59335;46.652;21.272;2023-03-29T15:13:21;121.68;;;7.60;;
71513;SDS011;59335;46.652;21.272;2023-03-29T15:16:25;53.05;;;4.90;;
71513;SDS011;59335;46.652;21.272;2023-03-29T15:19:31;37.78;;;3.80;;
71513;SDS011;59335;46.652;21.272;2023-03-29T15:22:35;32.13;;;3.83;;
71513;SDS011;59335;46.652;21.272;2023-03-29T15:25:52;27.87;;;3.93;;
71513;SDS011;59335;46.652;21.272;2023-03-29T15:32:18;28.23;;;3.58;;
71513;SDS011;59335;46.652;21.272;2023-03-29T15:35:22;24.35;;;3.13;;
71513;SDS011;59335;46.652;21.272;2023-03-29T15:38:26;25.15;;;3.35;;
71513;SDS011;59335;46.652;21.272;2023-03-29T15:41:44;31.30;;;3.20;;
71513;SDS011;59335;46.652;21.272;2023-03-29T15:44:52;24.63;;;3.38;;
71513;SDS011;59335;46.652;21.272;2023-03-29T15:47:56;23.98;;;3.35;;
71513;SDS011;59335;46.652;21.272;2023-03-29T15:50:58;25.80;;;3.10;;
71513;SDS011;59335;46.652;21.272;2023-03-29T15:54:07;19.80;;;3.08;;
71513;SDS011;59335;46.652;21.272;2023-03-29T15:57:14;20.17;;;2.70;;
71513;SDS011;59335;46.652;21.272;2023-03-29T16:00:17;20.20;;;3.10;;
71513;SDS011;59335;46.652;21.272;2023-03-29T16:03:22;23.23;;;3.50;;
71513;SDS011;59335;46.652;21.272;2023-03-29T16:06:26;17.55;;;3.05;;
71513;SDS011;59335;46.652;21.272;2023-03-29T16:09:29;14.73;;;2.95;;
71513;SDS011;59335;46.652;21.272;2023-03-29T16:12:33;21.67;;;3.30;;
71513;SDS011;59335;46.652;21.272;2023-03-29T16:15:38;18.75;;;2.67;;
71513;SDS011;59335;46.652;21.272;2023-03-29T16:18:42;14.45;;;2.95;;
71513;SDS011;59335;46.652;21.272;2023-03-29T16:21:45;12.93;;;2.83;;
71513;SDS011;59335;46.652;21.272;2023-03-29T16:24:49;14.30;;;2.60;;
71513;SDS011;59335;46.652;21.272;2023-03-29T16:27:51;14.07;;;2.87;;
71513;SDS011;59335;46.652;21.272;2023-03-29T16:30:54;12.82;;;2.95;;
71513;SDS011;59335;46.652;21.272;2023-03-29T16:33:57;16.23;;;2.72;;
71513;SDS011;59335;46.652;21.272;2023-03-29T16:37:00;15.13;;;2.55;;
71513;SDS011;59335;46.652;21.272;2023-03-29T16:40:03;16.67;;;3.17;;
71513;SDS011;59335;46.652;21.272;2023-03-29T16:43:14;14.77;;;3.20;;
71513;SDS011;59335;46.652;21.272;2023-03-29T16:46:18;13.65;;;3.03;;
71513;SDS011;59335;46.652;21.272;2023-03-29T16:49:22;15.13;;;3.17;;
71513;SDS011;59335;46.652;21.272;2023-03-29T16:52:25;10.15;;;2.80;;
71513;SDS011;59335;46.652;21.272;2023-03-29T16:55:28;11.27;;;2.60;;
71513;SDS011;59335;46.652;21.272;2023-03-29T16:58:31;13.97;;;2.93;;
71513;SDS011;59335;46.652;21.272;2023-03-29T17:01:34;13.77;;;2.83;;
71513;SDS011;59335;46.652;21.272;2023-03-29T17:04:37;12.95;;;2.80;;
71513;SDS011;59335;46.652;21.272;2023-03-29T17:07:40;12.90;;;2.83;;
71513;SDS011;59335;46.652;21.272;2023-03-29T17:10:44;13.63;;;2.72;;
71513;SDS011;59335;46.652;21.272;2023-03-29T17:13:48;12.10;;;2.80;;
71513;SDS011;59335;46.652;21.272;2023-03-29T17:16:51;12.15;;;2.72;;
71513;SDS011;59335;46.652;21.272;2023-03-29T17:19:54;12.57;;;3.17;;
71513;SDS011;59335;46.652;21.272;2023-03-29T17:22:57;12.35;;;3.25;;
71513;SDS011;59335;46.652;21.272;2023-03-29T17:26:01;13.15;;;2.90;;
71513;SDS011;59335;46.652;21.272;2023-03-29T17:29:07;9.30;;;3.10;;
71513;SDS011;59335;46.652;21.272;2023-03-29T17:32:10;12.13;;;2.95;;
71513;SDS011;59335;46.652;21.272;2023-03-29T17:35:13;9.27;;;3.15;;
71513;SDS011;59335;46.652;21.272;2023-03-29T17:38:16;14.20;;;2.90;;
71513;SDS011;59335;46.652;21.272;2023-03-29T17:41:19;9.20;;;3.28;;
71513;SDS011;59335;46.652;21.272;2023-03-29T17:44:22;12.10;;;3.30;;
71513;SDS011;59335;46.652;21.272;2023-03-29T17:47:25;12.98;;;3.17;;
71513;SDS011;59335;46.652;21.272;2023-03-29T17:50:29;11.65;;;2.88;;
71513;SDS011;59335;46.652;21.272;2023-03-29T17:53:32;11.15;;;2.90;;
71513;SDS011;59335;46.652;21.272;2023-03-29T17:56:35;9.85;;;3.30;;
71513;SDS011;59335;46.652;21.272;2023-03-29T17:59:39;12.47;;;3.07;;
71513;SDS011;59335;46.652;21.272;2023-03-29T18:02:43;9.57;;;3.05;;
71513;SDS011;59335;46.652;21.272;2023-03-29T18:05:49;11.68;;;3.25;;
71513;SDS011;59335;46.652;21.272;2023-03-29T18:08:53;10.90;;;3.83;;
71513;SDS011;59335;46.652;21.272;2023-03-29T18:11:59;10.57;;;3.15;;
71513;SDS011;59335;46.652;21.272;2023-03-29T18:15:02;13.97;;;4.80;;
71513;SDS011;59335;46.652;21.272;2023-03-29T18:18:07;11.27;;;4.57;;
71513;SDS011;59335;46.652;21.272;2023-03-29T18:21:12;8.98;;;3.63;;
71513;SDS011;59335;46.652;21.272;2023-03-29T18:24:16;11.80;;;3.85;;
71513;SDS011;59335;46.652;21.272;2023-03-29T18:27:20;12.18;;;4.13;;
71513;SDS011;59335;46.652;21.272;2023-03-29T18:30:23;11.97;;;5.00;;
71513;SDS011;59335;46.652;21.272;2023-03-29T18:33:27;11.32;;;4.95;;
71513;SDS011;59335;46.652;21.272;2023-03-29T18:36:32;15.27;;;5.60;;
71513;SDS011;59335;46.652;21.272;2023-03-29T18:39:37;10.73;;;4.93;;
71513;SDS011;59335;46.652;21.272;2023-03-29T18:42:43;14.18;;;5.20;;
71513;SDS011;59335;46.652;21.272;2023-03-29T18:45:46;15.07;;;5.90;;
71513;SDS011;59335;46.652;21.272;2023-03-29T18:48:50;12.15;;;6.40;;
71513;SDS011;59335;46.652;21.272;2023-03-29T18:51:55;12.05;;;5.90;;
71513;SDS011;59335;46.652;21.272;2023-03-29T18:54:59;13.88;;;5.20;;
71513;SDS011;59335;46.652;21.272;2023-03-29T18:58:05;14.82;;;6.60;;
71513;SDS011;59335;46.652;21.272;2023-03-29T19:01:09;13.03;;;6.60;;
71513;SDS011;59335;46.652;21.272;2023-03-29T19:04:14;14.07;;;6.18;;
71513;SDS011;59335;46.652;21.272;2023-03-29T19:07:18;13.57;;;7.00;;
71513;SDS011;59335;46.652;21.272;2023-03-29T19:10:24;12.50;;;7.00;;
71513;SDS011;59335;46.652;21.272;2023-03-29T19:13:29;16.60;;;7.60;;
71513;SDS011;59335;46.652;21.272;2023-03-29T19:16:33;13.13;;;7.13;;
71513;SDS011;59335;46.652;21.272;2023-03-29T19:19:39;16.42;;;8.15;;
71513;SDS011;59335;46.652;21.272;2023-03-29T19:22:42;16.05;;;8.25;;
71513;SDS011;59335;46.652;21.272;2023-03-29T19:25:57;14.15;;;7.70;;
71513;SDS011;59335;46.652;21.272;2023-03-29T19:29:03;17.38;;;7.80;;
71513;SDS011;59335;46.652;21.272;2023-03-29T19:32:10;14.00;;;7.53;;
71513;SDS011;59335;46.652;21.272;2023-03-29T19:35:16;15.43;;;7.65;;
71513;SDS011;59335;46.652;21.272;2023-03-29T19:38:21;13.05;;;7.97;;
71513;SDS011;59335;46.652;21.272;2023-03-29T19:41:26;14.20;;;7.97;;
71513;SDS011;59335;46.652;21.272;2023-03-29T19:44:30;13.88;;;7.60;;
71513;SDS011;59335;46.652;21.272;2023-03-29T19:47:34;13.00;;;7.50;;
71513;SDS011;59335;46.652;21.272;2023-03-29T19:50:41;13.18;;;7.53;;
71513;SDS011;59335;46.652;21.272;2023-03-29T19:53:48;15.43;;;7.75;;
71513;SDS011;59335;46.652;21.272;2023-03-29T19:56:53;14.75;;;7.75;;
71513;SDS011;59335;46.652;21.272;2023-03-29T19:59:58;14.88;;;8.32;;
71513;SDS011;59335;46.652;21.272;2023-03-29T20:03:13;15.77;;;7.63;;
71513;SDS011;59335;46.652;21.272;2023-03-29T20:06:17;17.95;;;8.52;;
71513;SDS011;59335;46.652;21.272;2023-03-29T20:09:22;14.75;;;7.93;;
71513;SDS011;59335;46.652;21.272;2023-03-29T20:12:26;15.48;;;7.95;;
71513;SDS011;59335;46.652;21.272;2023-03-29T20:15:29;13.88;;;8.18;;
71513;SDS011;59335;46.652;21.272;2023-03-29T20:18:33;15.20;;;8.10;;
71513;SDS011;59335;46.652;21.272;2023-03-29T20:21:37;14.98;;;8.05;;
71513;SDS011;59335;46.652;21.272;2023-03-29T20:24:40;16.63;;;8.30;;
71513;SDS011;59335;46.652;21.272;2023-03-29T20:27:42;15.90;;;9.25;;
71513;SDS011;59335;46.652;21.272;2023-03-29T20:30:46;14.93;;;8.73;;
71513;SDS011;59335;46.652;21.272;2023-03-29T20:33:52;14.57;;;7.67;;
71513;SDS011;59335;46.652;21.272;2023-03-29T20:36:58;14.30;;;8.23;;
71513;SDS011;59335;46.652;21.272;2023-03-29T20:40:02;15.98;;;7.60;;
71513;SDS011;59335;46.652;21.272;2023-03-29T20:43:06;14.90;;;7.88;;
71513;SDS011;59335;46.652;21.272;2023-03-29T20:46:14;14.77;;;7.78;;
71513;SDS011;59335;46.652;21.272;2023-03-29T20:49:19;14.13;;;7.27;;
71513;SDS011;59335;46.652;21.272;2023-03-29T20:52:27;14.48;;;7.80;;
71513;SDS011;59335;46.652;21.272;2023-03-29T20:55:30;13.65;;;7.10;;
71513;SDS011;59335;46.652;21.272;2023-03-29T20:58:39;13.52;;;7.60;;
71513;SDS011;59335;46.652;21.272;2023-03-29T21:01:43;14.90;;;7.50;;
71513;SDS011;59335;46.652;21.272;2023-03-29T21:04:48;11.97;;;6.80;;
71513;SDS011;59335;46.652;21.272;2023-03-29T21:07:54;15.60;;;7.95;;
71513;SDS011;59335;46.652;21.272;2023-03-29T21:10:58;14.02;;;8.10;;
71513;SDS011;59335;46.652;21.272;2023-03-29T21:14:00;12.35;;;7.53;;
71513;SDS011;59335;46.652;21.272;2023-03-29T21:17:03;12.80;;;7.32;;
71513;SDS011;59335;46.652;21.272;2023-03-29T21:20:06;14.37;;;7.53;;
71513;SDS011;59335;46.652;21.272;2023-03-29T21:23:12;12.55;;;7.38;;
71513;SDS011;59335;46.652;21.272;2023-03-29T21:26:14;15.23;;;7.35;;
71513;SDS011;59335;46.652;21.272;2023-03-29T21:29:17;12.73;;;6.82;;
71513;SDS011;59335;46.652;21.272;2023-03-29T21:32:20;11.35;;;6.70;;
71513;SDS011;59335;46.652;21.272;2023-03-29T21:35:23;12.67;;;6.67;;
71513;SDS011;59335;46.652;21.272;2023-03-29T21:38:26;13.23;;;6.80;;
71513;SDS011;59335;46.652;21.272;2023-03-29T21:41:29;12.00;;;6.95;;
71513;SDS011;59335;46.652;21.272;2023-03-29T21:44:32;14.70;;;7.15;;
71513;SDS011;59335;46.652;21.272;2023-03-29T21:47:35;12.52;;;7.47;;
71513;SDS011;59335;46.652;21.272;2023-03-29T21:50:38;13.87;;;9.57;;
71513;SDS011;59335;46.652;21.272;2023-03-29T21:53:41;11.90;;;6.18;;
71513;SDS011;59335;46.652;21.272;2023-03-29T21:56:44;12.30;;;7.00;;
71513;SDS011;59335;46.652;21.272;2023-03-29T21:59:48;13.30;;;6.75;;
71513;SDS011;59335;46.652;21.272;2023-03-29T22:02:51;11.73;;;6.70;;
71513;SDS011;59335;46.652;21.272;2023-03-29T22:05:58;11.13;;;6.43;;
71513;SDS011;59335;46.652;21.272;2023-03-29T22:09:05;11.93;;;6.70;;
71513;SDS011;59335;46.652;21.272;2023-03-29T22:12:08;12.20;;;7.03;;
71513;SDS011;59335;46.652;21.272;2023-03-29T22:15:11;12.63;;;7.00;;
71513;SDS011;59335;46.652;21.272;2023-03-29T22:18:13;12.20;;;6.43;;
71513;SDS011;59335;46.652;21.272;2023-03-29T22:21:21;12.30;;;6.60;;
71513;SDS011;59335;46.652;21.272;2023-03-29T22:24:26;10.82;;;6.32;;
71513;SDS011;59335;46.652;21.272;2023-03-29T22:27:30;12.73;;;6.45;;
71513;SDS011;59335;46.652;21.272;2023-03-29T22:30:32;12.68;;;6.90;;
71513;SDS011;59335;46.652;21.272;2023-03-29T22:33:35;10.63;;;6.43;;
71513;SDS011;59335;46.652;21.272;2023-03-29T22:36:38;11.73;;;6.00;;
71513;SDS011;59335;46.652;21.272;2023-03-29T22:39:42;12.10;;;6.10;;
71513;SDS011;59335;46.652;21.272;2023-03-29T22:42:44;11.63;;;6.47;;
71513;SDS011;59335;46.652;21.272;2023-03-29T22:45:47;11.07;;;6.28;;
71513;SDS011;59335;46.652;21.272;2023-03-29T22:48:50;10.70;;;6.68;;
71513;SDS011;59335;46.652;21.272;2023-03-29T22:51:54;11.80;;;6.43;;
71513;SDS011;59335;46.652;21.272;2023-03-29T22:54:57;11.05;;;6.55;;
71513;SDS011;59335;46.652;21.272;2023-03-29T22:57:59;11.05;;;6.30;;
71513;SDS011;59335;46.652;21.272;2023-03-29T23:01:05;9.98;;;6.32;;
71513;SDS011;59335;46.652;21.272;2023-03-29T23:04:09;13.02;;;7.30;;
71513;SDS011;59335;46.652;21.272;2023-03-29T23:07:11;10.73;;;6.20;;
71513;SDS011;59335;46.652;21.272;2023-03-29T23:10:14;10.48;;;5.95;;
71513;SDS011;59335;46.652;21.272;2023-03-29T23:13:17;11.85;;;6.50;;
71513;SDS011;59335;46.652;21.272;2023-03-29T23:16:30;11.20;;;6.13;;
71513;SDS011;59335;46.652;21.272;2023-03-29T23:19:33;11.35;;;6.45;;
71513;SDS011;59335;46.652;21.272;2023-03-29T23:22:36;11.40;;;6.10;;
71513;SDS011;59335;46.652;21.272;2023-03-29T23:25:44;10.75;;;5.70;;
71513;SDS011;59335;46.652;21.272;2023-03-29T23:28:47;10.57;;;6.07;;
71513;SDS011;59335;46.652;21.272;2023-03-29T23:31:52;10.75;;;5.72;;
71513;SDS011;59335;46.652;21.272;2023-03-29T23:34:58;10.18;;;6.20;;
71513;SDS011;59335;46.652;21.272;2023-03-29T23:38:01;13.47;;;6.10;;
71513;SDS011;59335;46.652;21.272;2023-03-29T23:41:06;9.38;;;5.88;;
71513;SDS011;59335;46.652;21.272;2023-03-29T23:44:12;10.68;;;6.03;;
71513;SDS011;59335;46.652;21.272;2023-03-29T23:47:14;10.25;;;5.75;;
71513;SDS011;59335;46.652;21.272;2023-03-29T23:50:18;9.43;;;5.78;;
71513;SDS011;59335;46.652;21.272;2023-03-29T23:53:20;10.83;;;5.50;;
71513;SDS011;59335;46.652;21.272;2023-03-29T23:56:23;10.27;;;5.75;;
71513;SDS011;59335;46.652;21.272;2023-03-29T23:59:26;10.57;;;6.15;;
